Time;durP1;ratioP1;P1;durP2;ratioP2;P2;SDS_P1;SDS_P2;PMS_P1;PMS_P2;Temp;Humidity;BMP_temperature;BMP_pressure;BME280_temperature;BME280_humidity;BME280_pressure;Samples;Min_cycle;Max_cycle;Signal;HPM_P1;HPM_P2
2021/01/17 00:00:44;;;;;;;3.45;3.15;;;;;;;19.94;37.10449;95316.05;;;;
2021/01/17 00:01:45;;;;;;;3.45;3.15;;;;;;;19.94;37.10449;95316.05;;;;
2021/01/17 00:02:45;;;;;;;3.5;3.2;;;;;;;19.82;37.6582;95294.7;;;;
2021/01/17 00:03:47;;;;;;;3.5;3.2;;;;;;;19.82;37.6582;95294.7;;;;
2021/01/17 00:04:47;;;;;;;3.5;3.2;;;;;;;19.82;37.6582;95294.7;;;;
2021/01/17 00:05:49;;;;;;;3.5;3.2;;;;;;;19.82;37.6582;95294.7;;;;
2021/01/17 00:06:50;;;;;;;3.5;3.2;;;;;;;19.82;37.6582;95294.7;;;;
2021/01/17 00:07:50;;;;;;;3.5;3.2;;;;;;;19.82;37.6582;95294.7;;;;
2021/01/17 00:08:51;;;;;;;3.5;3.2;;;;;;;19.82;37.6582;95294.7;;;;
2021/01/17 00:09:52;;;;;;;3.5;3.2;;;;;;;19.82;37.6582;95294.7;;;;
2021/01/17 00:10:52;;;;;;;3.5;3.2;;;;;;;19.82;37.6582;95294.7;;;;
2021/01/17 00:11:53;;;;;;;3.5;3.2;;;;;;;19.82;37.6582;95294.7;;;;
2021/01/17 00:12:53;;;;;;;3.4;3.1;;;;;;;19.73;37.79395;95277.28;;;;
2021/01/17 00:13:56;;;;;;;3.4;3.1;;;;;;;19.73;37.79395;95277.28;;;;
2021/01/17 00:14:57;;;;;;;3.4;3.1;;;;;;;19.73;37.79395;95277.28;;;;
2021/01/17 00:15:57;;;;;;;3.4;3.1;;;;;;;19.73;37.79395;95277.28;;;;
2021/01/17 00:16:58;;;;;;;3.4;3.1;;;;;;;19.73;37.79395;95277.28;;;;
2021/01/17 00:17:59;;;;;;;3.4;3.1;;;;;;;19.73;37.79395;95277.28;;;;
2021/01/17 00:19:00;;;;;;;3.4;3.1;;;;;;;19.73;37.79395;95277.28;;;;
2021/01/17 00:20:00;;;;;;;3.4;3.1;;;;;;;19.73;37.79395;95277.28;;;;
2021/01/17 00:21:01;;;;;;;3.4;3.1;;;;;;;19.73;37.79395;95277.28;;;;
2021/01/17 00:22:02;;;;;;;3.4;3.1;;;;;;;19.73;37.79395;95277.28;;;;
2021/01/17 00:23:02;;;;;;;3.4;3.1;;;;;;;19.73;37.79395;95277.28;;;;
2021/01/17 00:24:05;;;;;;;2.95;2.75;;;;;;;19.6;38.02637;95257.84;;;;
2021/01/17 00:25:07;;;;;;;2.95;2.75;;;;;;;19.6;38.02637;95257.84;;;;
2021/01/17 00:26:11;;;;;;;2.95;2.75;;;;;;;19.6;38.02637;95257.84;;;;
2021/01/17 00:27:11;;;;;;;2.95;2.75;;;;;;;19.6;38.02637;95257.84;;;;
2021/01/17 00:28:12;;;;;;;2.95;2.75;;;;;;;19.6;38.02637;95257.84;;;;
2021/01/17 00:29:13;;;;;;;2.95;2.75;;;;;;;19.6;38.02637;95257.84;;;;
2021/01/17 00:30:13;;;;;;;2.95;2.75;;;;;;;19.6;38.02637;95257.84;;;;
2021/01/17 00:31:16;;;;;;;2.95;2.75;;;;;;;19.6;38.02637;95257.84;;;;
2021/01/17 00:32:16;;;;;;;2.95;2.75;;;;;;;19.6;38.02637;95257.84;;;;
2021/01/17 00:33:16;;;;;;;2.95;2.75;;;;;;;19.6;38.02637;95257.84;;;;
2021/01/17 00:34:17;;;;;;;2.95;2.75;;;;;;;19.54;38.09766;95232.98;;;;
2021/01/17 00:35:17;;;;;;;2.95;2.75;;;;;;;19.54;38.09766;95232.98;;;;
2021/01/17 00:36:18;;;;;;;2.95;2.75;;;;;;;19.54;38.09766;95232.98;;;;
2021/01/17 00:37:19;;;;;;;2.95;2.75;;;;;;;19.54;38.09766;95232.98;;;;
2021/01/17 00:38:19;;;;;;;2.95;2.75;;;;;;;19.54;38.09766;95232.98;;;;
2021/01/17 00:39:20;;;;;;;2.95;2.75;;;;;;;19.54;38.09766;95232.98;;;;
2021/01/17 00:40:21;;;;;;;2.95;2.75;;;;;;;19.54;38.09766;95232.98;;;;
2021/01/17 00:41:22;;;;;;;2.95;2.75;;;;;;;19.54;38.09766;95232.98;;;;
2021/01/17 00:42:29;;;;;;;2.95;2.75;;;;;;;19.54;38.09766;95232.98;;;;
2021/01/17 00:43:29;;;;;;;2.95;2.75;;;;;;;19.54;38.09766;95232.98;;;;
2021/01/17 00:44:29;;;;;;;2.95;2.75;;;;;;;19.54;38.09766;95232.98;;;;
2021/01/17 00:45:30;;;;;;;3.1;2.8;;;;;;;19.44;38.36523;95227.23;;;;
2021/01/17 00:46:31;;;;;;;3.1;2.8;;;;;;;19.44;38.36523;95227.23;;;;
2021/01/17 00:47:36;;;;;;;3.1;2.8;;;;;;;19.44;38.36523;95227.23;;;;
2021/01/17 00:48:38;;;;;;;3.1;2.8;;;;;;;19.44;38.36523;95227.23;;;;
2021/01/17 00:49:39;;;;;;;3.1;2.8;;;;;;;19.44;38.36523;95227.23;;;;
2021/01/17 00:50:40;;;;;;;3.1;2.8;;;;;;;19.44;38.36523;95227.23;;;;
2021/01/17 00:51:41;;;;;;;3.1;2.8;;;;;;;19.44;38.36523;95227.23;;;;
2021/01/17 00:52:45;;;;;;;3.1;2.8;;;;;;;19.44;38.36523;95227.23;;;;
2021/01/17 00:53:50;;;;;;;3.1;2.8;;;;;;;19.44;38.36523;95227.23;;;;
2021/01/17 00:54:51;;;;;;;3.1;2.8;;;;;;;19.44;38.36523;95227.23;;;;
2021/01/17 00:55:51;;;;;;;3;2.8;;;;;;;19.39;38.38281;95218.67;;;;
2021/01/17 00:56:52;;;;;;;3;2.8;;;;;;;19.39;38.38281;95218.67;;;;
2021/01/17 00:57:52;;;;;;;3;2.8;;;;;;;19.39;38.38281;95218.67;;;;
2021/01/17 00:58:53;;;;;;;3;2.8;;;;;;;19.39;38.38281;95218.67;;;;
2021/01/17 00:59:53;;;;;;;3;2.8;;;;;;;19.39;38.38281;95218.67;;;;
2021/01/17 01:00:54;;;;;;;3;2.8;;;;;;;19.39;38.38281;95218.67;;;;
2021/01/17 01:01:55;;;;;;;3;2.8;;;;;;;19.39;38.38281;95218.67;;;;
2021/01/17 01:02:55;;;;;;;3;2.8;;;;;;;19.39;38.38281;95218.67;;;;
2021/01/17 01:03:56;;;;;;;3;2.8;;;;;;;19.39;38.38281;95218.67;;;;
2021/01/17 01:04:56;;;;;;;3;2.8;;;;;;;19.39;38.38281;95218.67;;;;
2021/01/17 01:05:57;;;;;;;3;2.8;;;;;;;19.39;38.38281;95218.67;;;;
2021/01/17 01:06:57;;;;;;;3.15;2.9;;;;;;;19.3;38.41992;95202.84;;;;
2021/01/17 01:07:59;;;;;;;3.15;2.9;;;;;;;19.3;38.41992;95202.84;;;;
2021/01/17 01:09:01;;;;;;;3.15;2.9;;;;;;;19.3;38.41992;95202.84;;;;
2021/01/17 01:10:06;;;;;;;3.15;2.9;;;;;;;19.3;38.41992;95202.84;;;;
2021/01/17 01:11:08;;;;;;;3.15;2.9;;;;;;;19.3;38.41992;95202.84;;;;
2021/01/17 01:12:09;;;;;;;3.15;2.9;;;;;;;19.3;38.41992;95202.84;;;;
2021/01/17 01:13:09;;;;;;;3.15;2.9;;;;;;;19.3;38.41992;95202.84;;;;
2021/01/17 01:14:09;;;;;;;3.15;2.9;;;;;;;19.3;38.41992;95202.84;;;;
2021/01/17 01:15:10;;;;;;;3.15;2.9;;;;;;;19.3;38.41992;95202.84;;;;
2021/01/17 01:16:11;;;;;;;3.15;2.9;;;;;;;19.3;38.41992;95202.84;;;;
2021/01/17 01:17:12;;;;;;;2.85;2.65;;;;;;;19.26;38.50488;95193.6;;;;
2021/01/17 01:18:12;;;;;;;2.85;2.65;;;;;;;19.26;38.50488;95193.6;;;;
2021/01/17 01:19:13;;;;;;;2.85;2.65;;;;;;;19.26;38.50488;95193.6;;;;
2021/01/17 01:20:14;;;;;;;2.85;2.65;;;;;;;19.26;38.50488;95193.6;;;;
2021/01/17 01:21:14;;;;;;;2.85;2.65;;;;;;;19.26;38.50488;95193.6;;;;
2021/01/17 01:22:15;;;;;;;2.85;2.65;;;;;;;19.26;38.50488;95193.6;;;;
2021/01/17 01:23:15;;;;;;;2.85;2.65;;;;;;;19.26;38.50488;95193.6;;;;
2021/01/17 01:24:16;;;;;;;2.85;2.65;;;;;;;19.26;38.50488;95193.6;;;;
2021/01/17 01:25:16;;;;;;;2.85;2.65;;;;;;;19.26;38.50488;95193.6;;;;
2021/01/17 01:26:20;;;;;;;2.85;2.65;;;;;;;19.26;38.50488;95193.6;;;;
2021/01/17 01:27:20;;;;;;;2.75;2.55;;;;;;;19.18;38.59668;95170.96;;;;
2021/01/17 01:28:21;;;;;;;2.75;2.55;;;;;;;19.18;38.59668;95170.96;;;;
2021/01/17 01:29:21;;;;;;;2.75;2.55;;;;;;;19.18;38.59668;95170.96;;;;
2021/01/17 01:30:22;;;;;;;2.75;2.55;;;;;;;19.18;38.59668;95170.96;;;;
2021/01/17 01:31:22;;;;;;;2.75;2.55;;;;;;;19.18;38.59668;95170.96;;;;
2021/01/17 01:32:25;;;;;;;2.75;2.55;;;;;;;19.18;38.59668;95170.96;;;;
2021/01/17 01:33:25;;;;;;;2.75;2.55;;;;;;;19.18;38.59668;95170.96;;;;
2021/01/17 01:34:26;;;;;;;2.75;2.55;;;;;;;19.18;38.59668;95170.96;;;;
2021/01/17 01:35:27;;;;;;;2.75;2.55;;;;;;;19.18;38.59668;95170.96;;;;
2021/01/17 01:36:27;;;;;;;2.75;2.55;;;;;;;19.18;38.59668;95170.96;;;;
2021/01/17 01:37:29;;;;;;;2.75;2.55;;;;;;;19.18;38.59668;95170.96;;;;
2021/01/17 01:38:30;;;;;;;3.05;2.85;;;;;;;19.16;38.62695;95158.67;;;;
2021/01/17 01:39:30;;;;;;;3.05;2.85;;;;;;;19.16;38.62695;95158.67;;;;
2021/01/17 01:40:31;;;;;;;3.05;2.85;;;;;;;19.16;38.62695;95158.67;;;;
2021/01/17 01:41:31;;;;;;;3.05;2.85;;;;;;;19.16;38.62695;95158.67;;;;
2021/01/17 01:42:34;;;;;;;3.05;2.85;;;;;;;19.16;38.62695;95158.67;;;;
2021/01/17 01:43:34;;;;;;;3.05;2.85;;;;;;;19.16;38.62695;95158.67;;;;
2021/01/17 01:44:35;;;;;;;3.05;2.85;;;;;;;19.16;38.62695;95158.67;;;;
2021/01/17 01:45:35;;;;;;;3.05;2.85;;;;;;;19.16;38.62695;95158.67;;;;
2021/01/17 01:46:36;;;;;;;3.05;2.85;;;;;;;19.16;38.62695;95158.67;;;;
2021/01/17 01:47:38;;;;;;;3.05;2.85;;;;;;;19.16;38.62695;95158.67;;;;
2021/01/17 01:48:39;;;;;;;3.05;2.85;;;;;;;19.08;38.6875;95140.99;;;;
2021/01/17 01:49:40;;;;;;;3.05;2.85;;;;;;;19.08;38.6875;95140.99;;;;
2021/01/17 01:50:41;;;;;;;3.05;2.85;;;;;;;19.08;38.6875;95140.99;;;;
2021/01/17 01:51:43;;;;;;;3.05;2.85;;;;;;;19.08;38.6875;95140.99;;;;
2021/01/17 01:52:43;;;;;;;3.05;2.85;;;;;;;19.08;38.6875;95140.99;;;;
2021/01/17 01:53:45;;;;;;;3.05;2.85;;;;;;;19.08;38.6875;95140.99;;;;
2021/01/17 01:54:46;;;;;;;3.05;2.85;;;;;;;19.08;38.6875;95140.99;;;;
2021/01/17 01:55:47;;;;;;;3.05;2.85;;;;;;;19.08;38.6875;95140.99;;;;
2021/01/17 01:56:48;;;;;;;3.05;2.85;;;;;;;19.08;38.6875;95140.99;;;;
2021/01/17 01:57:52;;;;;;;3.05;2.85;;;;;;;19.08;38.6875;95140.99;;;;
2021/01/17 01:58:58;;;;;;;3.05;2.85;;;;;;;19.08;38.6875;95140.99;;;;
2021/01/17 02:00:03;;;;;;;3.2;2.9;;;;;;;19.07;38.66406;95128.56;;;;
2021/01/17 02:01:06;;;;;;;3.2;2.9;;;;;;;19.07;38.66406;95128.56;;;;
2021/01/17 02:02:06;;;;;;;3.2;2.9;;;;;;;19.07;38.66406;95128.56;;;;
2021/01/17 02:03:08;;;;;;;3.2;2.9;;;;;;;19.07;38.66406;95128.56;;;;
2021/01/17 02:04:08;;;;;;;3.2;2.9;;;;;;;19.07;38.66406;95128.56;;;;
2021/01/17 02:05:09;;;;;;;3.2;2.9;;;;;;;19.07;38.66406;95128.56;;;;
2021/01/17 02:06:11;;;;;;;3.2;2.9;;;;;;;19.07;38.66406;95128.56;;;;
2021/01/17 02:07:12;;;;;;;3.2;2.9;;;;;;;19.07;38.66406;95128.56;;;;
2021/01/17 02:08:34;;;;;;;3.2;2.9;;;;;;;19.07;38.66406;95128.56;;;;
2021/01/17 02:09:50;;;;;;;3.2;2.9;;;;;;;19.07;38.66406;95128.56;;;;
2021/01/17 02:10:50;;;;;;;3.15;2.900001;;;;;;;19.01;38.74609;95114.67;;;;
2021/01/17 02:11:51;;;;;;;3.15;2.900001;;;;;;;19.01;38.74609;95114.67;;;;
2021/01/17 02:13:12;;;;;;;3.15;2.900001;;;;;;;19.01;38.74609;95114.67;;;;
2021/01/17 02:14:20;;;;;;;3.15;2.900001;;;;;;;19.01;38.74609;95114.67;;;;
2021/01/17 02:15:31;;;;;;;3.15;2.900001;;;;;;;19.01;38.74609;95114.67;;;;
2021/01/17 02:16:37;;;;;;;3.15;2.900001;;;;;;;19.01;38.74609;95114.67;;;;
2021/01/17 02:17:40;;;;;;;3.15;2.900001;;;;;;;19.01;38.74609;95114.67;;;;
2021/01/17 02:18:42;;;;;;;3.15;2.900001;;;;;;;19.01;38.74609;95114.67;;;;
2021/01/17 02:19:44;;;;;;;3.15;2.900001;;;;;;;19.01;38.74609;95114.67;;;;
2021/01/17 02:21:04;;;;;;;3.05;2.8;;;;;;;19;38.71289;95099.75;;;;
2021/01/17 02:22:06;;;;;;;3.05;2.8;;;;;;;19;38.71289;95099.75;;;;
2021/01/17 02:23:10;;;;;;;3.05;2.8;;;;;;;19;38.71289;95099.75;;;;
2021/01/17 02:24:15;;;;;;;3.05;2.8;;;;;;;19;38.71289;95099.75;;;;
2021/01/17 02:25:18;;;;;;;3.05;2.8;;;;;;;19;38.71289;95099.75;;;;
2021/01/17 02:26:20;;;;;;;3.05;2.8;;;;;;;19;38.71289;95099.75;;;;
2021/01/17 02:27:20;;;;;;;3.05;2.8;;;;;;;19;38.71289;95099.75;;;;
2021/01/17 02:28:21;;;;;;;3.05;2.8;;;;;;;19;38.71289;95099.75;;;;
2021/01/17 02:29:22;;;;;;;3.05;2.8;;;;;;;19;38.71289;95099.75;;;;
2021/01/17 02:30:23;;;;;;;3.05;2.8;;;;;;;19;38.71289;95099.75;;;;
2021/01/17 02:31:26;;;;;;;3.25;2.95;;;;;;;18.93;38.77246;95076.85;;;;
2021/01/17 02:32:27;;;;;;;3.25;2.95;;;;;;;18.93;38.77246;95076.85;;;;
2021/01/17 02:33:31;;;;;;;3.25;2.95;;;;;;;18.93;38.77246;95076.85;;;;
2021/01/17 02:34:35;;;;;;;3.25;2.95;;;;;;;18.93;38.77246;95076.85;;;;
2021/01/17 02:35:36;;;;;;;3.25;2.95;;;;;;;18.93;38.77246;95076.85;;;;
2021/01/17 02:36:38;;;;;;;3.25;2.95;;;;;;;18.93;38.77246;95076.85;;;;
2021/01/17 02:37:52;;;;;;;3.25;2.95;;;;;;;18.93;38.77246;95076.85;;;;
2021/01/17 02:39:04;;;;;;;3.25;2.95;;;;;;;18.93;38.77246;95076.85;;;;
2021/01/17 02:40:12;;;;;;;3.25;2.95;;;;;;;18.93;38.77246;95076.85;;;;
2021/01/17 02:42:05;;;;;;;2.900001;2.7;;;;;;;18.93;38.77246;95052.36;;;;
2021/01/17 02:43:07;;;;;;;2.900001;2.7;;;;;;;18.93;38.77246;95052.36;;;;
2021/01/17 02:44:08;;;;;;;2.900001;2.7;;;;;;;18.93;38.77246;95052.36;;;;
2021/01/17 02:45:09;;;;;;;2.900001;2.7;;;;;;;18.93;38.77246;95052.36;;;;
2021/01/17 02:46:10;;;;;;;2.900001;2.7;;;;;;;18.93;38.77246;95052.36;;;;
2021/01/17 02:47:11;;;;;;;2.900001;2.7;;;;;;;18.93;38.77246;95052.36;;;;
2021/01/17 02:48:11;;;;;;;2.900001;2.7;;;;;;;18.93;38.77246;95052.36;;;;
2021/01/17 02:49:12;;;;;;;2.900001;2.7;;;;;;;18.93;38.77246;95052.36;;;;
2021/01/17 02:50:13;;;;;;;2.900001;2.7;;;;;;;18.93;38.77246;95052.36;;;;
2021/01/17 02:51:13;;;;;;;2.900001;2.7;;;;;;;18.93;38.77246;95052.36;;;;
2021/01/17 02:52:14;;;;;;;2.900001;2.7;;;;;;;18.93;38.77246;95052.36;;;;
2021/01/17 02:53:15;;;;;;;3;2.8;;;;;;;18.89;38.81348;95033.94;;;;
2021/01/17 02:54:24;;;;;;;3;2.8;;;;;;;18.89;38.81348;95033.94;;;;
2021/01/17 02:55:31;;;;;;;3;2.8;;;;;;;18.89;38.81348;95033.94;;;;
2021/01/17 02:56:36;;;;;;;3;2.8;;;;;;;18.89;38.81348;95033.94;;;;
2021/01/17 02:57:40;;;;;;;3;2.8;;;;;;;18.89;38.81348;95033.94;;;;
2021/01/17 02:58:44;;;;;;;3;2.8;;;;;;;18.89;38.81348;95033.94;;;;
2021/01/17 02:59:49;;;;;;;3;2.8;;;;;;;18.89;38.81348;95033.94;;;;
2021/01/17 03:00:55;;;;;;;3;2.8;;;;;;;18.89;38.81348;95033.94;;;;
2021/01/17 03:01:57;;;;;;;3;2.8;;;;;;;18.89;38.81348;95033.94;;;;
2021/01/17 03:02:59;;;;;;;3;2.8;;;;;;;18.89;38.81348;95033.94;;;;
2021/01/17 03:04:01;;;;;;;2.95;2.75;;;;;;;18.91;38.68262;95029.97;;;;
2021/01/17 03:05:17;;;;;;;2.95;2.75;;;;;;;18.91;38.68262;95029.97;;;;
2021/01/17 03:06:19;;;;;;;2.95;2.75;;;;;;;18.91;38.68262;95029.97;;;;
2021/01/17 03:07:21;;;;;;;2.95;2.75;;;;;;;18.91;38.68262;95029.97;;;;
2021/01/17 03:08:23;;;;;;;2.95;2.75;;;;;;;18.91;38.68262;95029.97;;;;
2021/01/17 03:09:24;;;;;;;2.95;2.75;;;;;;;18.91;38.68262;95029.97;;;;
2021/01/17 03:10:28;;;;;;;2.95;2.75;;;;;;;18.91;38.68262;95029.97;;;;
2021/01/17 03:11:30;;;;;;;2.95;2.75;;;;;;;18.91;38.68262;95029.97;;;;
2021/01/17 03:12:30;;;;;;;2.95;2.75;;;;;;;18.91;38.68262;95029.97;;;;
2021/01/17 03:13:31;;;;;;;2.95;2.75;;;;;;;18.91;38.68262;95029.97;;;;
2021/01/17 03:14:35;;;;;;;2.85;2.65;;;;;;;18.86;38.77832;95014.84;;;;
2021/01/17 03:15:37;;;;;;;2.85;2.65;;;;;;;18.86;38.77832;95014.84;;;;
2021/01/17 03:16:40;;;;;;;2.85;2.65;;;;;;;18.86;38.77832;95014.84;;;;
2021/01/17 03:17:41;;;;;;;2.85;2.65;;;;;;;18.86;38.77832;95014.84;;;;
2021/01/17 03:18:42;;;;;;;2.85;2.65;;;;;;;18.86;38.77832;95014.84;;;;
2021/01/17 03:19:42;;;;;;;2.85;2.65;;;;;;;18.86;38.77832;95014.84;;;;
2021/01/17 03:20:42;;;;;;;2.85;2.65;;;;;;;18.86;38.77832;95014.84;;;;
2021/01/17 03:21:43;;;;;;;2.85;2.65;;;;;;;18.86;38.77832;95014.84;;;;
2021/01/17 03:22:44;;;;;;;2.85;2.65;;;;;;;18.86;38.77832;95014.84;;;;
2021/01/17 03:23:44;;;;;;;2.85;2.65;;;;;;;18.86;38.77832;95014.84;;;;
2021/01/17 03:24:44;;;;;;;2.85;2.65;;;;;;;18.86;38.72266;95015.8;;;;
2021/01/17 03:25:45;;;;;;;2.85;2.65;;;;;;;18.86;38.72266;95015.8;;;;
2021/01/17 03:26:46;;;;;;;2.85;2.65;;;;;;;18.86;38.72266;95015.8;;;;
2021/01/17 03:27:46;;;;;;;2.85;2.65;;;;;;;18.86;38.72266;95015.8;;;;
2021/01/17 03:28:46;;;;;;;2.85;2.65;;;;;;;18.86;38.72266;95015.8;;;;
2021/01/17 03:29:47;;;;;;;2.85;2.65;;;;;;;18.86;38.72266;95015.8;;;;
2021/01/17 03:30:48;;;;;;;2.85;2.65;;;;;;;18.86;38.72266;95015.8;;;;
2021/01/17 03:31:48;;;;;;;2.85;2.65;;;;;;;18.86;38.72266;95015.8;;;;
2021/01/17 03:32:49;;;;;;;2.85;2.65;;;;;;;18.86;38.72266;95015.8;;;;
2021/01/17 03:33:49;;;;;;;2.85;2.65;;;;;;;18.86;38.72266;95015.8;;;;
2021/01/17 03:34:49;;;;;;;2.85;2.65;;;;;;;18.86;38.72266;95015.8;;;;
2021/01/17 03:35:50;;;;;;;2.8;2.6;;;;;;;18.79;38.81641;95007.54;;;;
2021/01/17 03:36:50;;;;;;;2.8;2.6;;;;;;;18.79;38.81641;95007.54;;;;
2021/01/17 03:37:51;;;;;;;2.8;2.6;;;;;;;18.79;38.81641;95007.54;;;;
2021/01/17 03:38:51;;;;;;;2.8;2.6;;;;;;;18.79;38.81641;95007.54;;;;
2021/01/17 03:39:52;;;;;;;2.8;2.6;;;;;;;18.79;38.81641;95007.54;;;;
2021/01/17 03:40:52;;;;;;;2.8;2.6;;;;;;;18.79;38.81641;95007.54;;;;
2021/01/17 03:41:53;;;;;;;2.8;2.6;;;;;;;18.79;38.81641;95007.54;;;;
2021/01/17 03:42:53;;;;;;;2.8;2.6;;;;;;;18.79;38.81641;95007.54;;;;
2021/01/17 03:43:54;;;;;;;2.8;2.6;;;;;;;18.79;38.81641;95007.54;;;;
2021/01/17 03:44:54;;;;;;;2.8;2.6;;;;;;;18.79;38.81641;95007.54;;;;
2021/01/17 03:45:55;;;;;;;2.8;2.6;;;;;;;18.79;38.81641;95007.54;;;;
2021/01/17 03:46:56;;;;;;;2.95;2.75;;;;;;;18.79;38.76074;95003.03;;;;
2021/01/17 03:47:56;;;;;;;2.95;2.75;;;;;;;18.79;38.76074;95003.03;;;;
2021/01/17 03:48:57;;;;;;;2.95;2.75;;;;;;;18.79;38.76074;95003.03;;;;
2021/01/17 03:49:58;;;;;;;2.95;2.75;;;;;;;18.79;38.76074;95003.03;;;;
2021/01/17 03:50:58;;;;;;;2.95;2.75;;;;;;;18.79;38.76074;95003.03;;;;
2021/01/17 03:51:59;;;;;;;2.95;2.75;;;;;;;18.79;38.76074;95003.03;;;;
2021/01/17 03:53:00;;;;;;;2.95;2.75;;;;;;;18.79;38.76074;95003.03;;;;
2021/01/17 03:54:00;;;;;;;2.95;2.75;;;;;;;18.79;38.76074;95003.03;;;;
2021/01/17 03:55:01;;;;;;;2.95;2.75;;;;;;;18.79;38.76074;95003.03;;;;
2021/01/17 03:56:01;;;;;;;2.95;2.75;;;;;;;18.79;38.76074;95003.03;;;;
2021/01/17 03:57:02;;;;;;;2.55;2.35;;;;;;;18.74;38.85547;95006.8;;;;
2021/01/17 03:58:03;;;;;;;2.55;2.35;;;;;;;18.74;38.85547;95006.8;;;;
2021/01/17 03:59:03;;;;;;;2.55;2.35;;;;;;;18.74;38.85547;95006.8;;;;
2021/01/17 04:00:04;;;;;;;2.55;2.35;;;;;;;18.74;38.85547;95006.8;;;;
2021/01/17 04:01:06;;;;;;;2.55;2.35;;;;;;;18.74;38.85547;95006.8;;;;
2021/01/17 04:02:06;;;;;;;2.55;2.35;;;;;;;18.74;38.85547;95006.8;;;;
2021/01/17 04:03:07;;;;;;;2.55;2.35;;;;;;;18.74;38.85547;95006.8;;;;
2021/01/17 04:04:07;;;;;;;2.55;2.35;;;;;;;18.74;38.85547;95006.8;;;;
2021/01/17 04:05:08;;;;;;;2.55;2.35;;;;;;;18.74;38.85547;95006.8;;;;
2021/01/17 04:06:09;;;;;;;2.55;2.35;;;;;;;18.74;38.85547;95006.8;;;;
2021/01/17 04:07:10;;;;;;;2.55;2.35;;;;;;;18.74;38.85547;95006.8;;;;
2021/01/17 04:08:11;;;;;;;2.6;2.4;;;;;;;18.75;38.82324;95012.52;;;;
2021/01/17 04:09:12;;;;;;;2.6;2.4;;;;;;;18.75;38.82324;95012.52;;;;
2021/01/17 04:10:12;;;;;;;2.6;2.4;;;;;;;18.75;38.82324;95012.52;;;;
2021/01/17 04:11:13;;;;;;;2.6;2.4;;;;;;;18.75;38.82324;95012.52;;;;
2021/01/17 04:12:13;;;;;;;2.6;2.4;;;;;;;18.75;38.82324;95012.52;;;;
2021/01/17 04:13:14;;;;;;;2.6;2.4;;;;;;;18.75;38.82324;95012.52;;;;
2021/01/17 04:14:14;;;;;;;2.6;2.4;;;;;;;18.75;38.82324;95012.52;;;;
2021/01/17 04:15:15;;;;;;;2.6;2.4;;;;;;;18.75;38.82324;95012.52;;;;
2021/01/17 04:16:15;;;;;;;2.6;2.4;;;;;;;18.75;38.82324;95012.52;;;;
2021/01/17 04:17:16;;;;;;;2.6;2.4;;;;;;;18.75;38.82324;95012.52;;;;
2021/01/17 04:18:16;;;;;;;2.8;2.6;;;;;;;18.69;38.88379;95009.03;;;;
2021/01/17 04:19:17;;;;;;;2.8;2.6;;;;;;;18.69;38.88379;95009.03;;;;
2021/01/17 04:20:18;;;;;;;2.8;2.6;;;;;;;18.69;38.88379;95009.03;;;;
2021/01/17 04:21:19;;;;;;;2.8;2.6;;;;;;;18.69;38.88379;95009.03;;;;
2021/01/17 04:22:19;;;;;;;2.8;2.6;;;;;;;18.69;38.88379;95009.03;;;;
2021/01/17 04:23:20;;;;;;;2.8;2.6;;;;;;;18.69;38.88379;95009.03;;;;
2021/01/17 04:24:20;;;;;;;2.8;2.6;;;;;;;18.69;38.88379;95009.03;;;;
2021/01/17 04:25:21;;;;;;;2.8;2.6;;;;;;;18.69;38.88379;95009.03;;;;
2021/01/17 04:26:21;;;;;;;2.8;2.6;;;;;;;18.69;38.88379;95009.03;;;;
2021/01/17 04:27:22;;;;;;;2.8;2.6;;;;;;;18.69;38.88379;95009.03;;;;
2021/01/17 04:28:22;;;;;;;2.8;2.6;;;;;;;18.69;38.88379;95009.03;;;;
2021/01/17 04:29:23;;;;;;;2.6;2.4;;;;;;;18.7;38.85156;95006.16;;;;
2021/01/17 04:30:26;;;;;;;2.6;2.4;;;;;;;18.7;38.85156;95006.16;;;;
2021/01/17 04:31:31;;;;;;;2.6;2.4;;;;;;;18.7;38.85156;95006.16;;;;
2021/01/17 04:32:40;;;;;;;2.6;2.4;;;;;;;18.7;38.85156;95006.16;;;;
2021/01/17 04:33:41;;;;;;;2.6;2.4;;;;;;;18.7;38.85156;95006.16;;;;
2021/01/17 04:34:42;;;;;;;2.6;2.4;;;;;;;18.7;38.85156;95006.16;;;;
2021/01/17 04:35:42;;;;;;;2.6;2.4;;;;;;;18.7;38.85156;95006.16;;;;
2021/01/17 04:36:42;;;;;;;2.6;2.4;;;;;;;18.7;38.85156;95006.16;;;;
2021/01/17 04:37:46;;;;;;;2.6;2.4;;;;;;;18.7;38.85156;95006.16;;;;
2021/01/17 04:38:46;;;;;;;2.6;2.4;;;;;;;18.7;38.85156;95006.16;;;;
2021/01/17 04:39:46;;;;;;;2.7;2.5;;;;;;;18.65;38.94727;95007.01;;;;
2021/01/17 04:40:47;;;;;;;2.7;2.5;;;;;;;18.65;38.94727;95007.01;;;;
2021/01/17 04:41:48;;;;;;;2.7;2.5;;;;;;;18.65;38.94727;95007.01;;;;
2021/01/17 04:42:53;;;;;;;2.7;2.5;;;;;;;18.65;38.94727;95007.01;;;;
2021/01/17 04:44:05;;;;;;;2.7;2.5;;;;;;;18.65;38.94727;95007.01;;;;
2021/01/17 04:45:09;;;;;;;2.7;2.5;;;;;;;18.65;38.94727;95007.01;;;;
2021/01/17 04:46:11;;;;;;;2.7;2.5;;;;;;;18.65;38.94727;95007.01;;;;
2021/01/17 04:47:13;;;;;;;2.7;2.5;;;;;;;18.65;38.94727;95007.01;;;;
2021/01/17 04:48:13;;;;;;;2.7;2.5;;;;;;;18.65;38.94727;95007.01;;;;
2021/01/17 04:49:17;;;;;;;2.7;2.5;;;;;;;18.65;38.94727;95007.01;;;;
2021/01/17 04:50:21;;;;;;;2.7;2.45;;;;;;;18.67;38.88281;95003.61;;;;
2021/01/17 04:51:22;;;;;;;2.7;2.45;;;;;;;18.67;38.88281;95003.61;;;;
2021/01/17 04:52:26;;;;;;;2.7;2.45;;;;;;;18.67;38.88281;95003.61;;;;
2021/01/17 04:53:29;;;;;;;2.7;2.45;;;;;;;18.67;38.88281;95003.61;;;;
2021/01/17 04:54:32;;;;;;;2.7;2.45;;;;;;;18.67;38.88281;95003.61;;;;
2021/01/17 04:55:33;;;;;;;2.7;2.45;;;;;;;18.67;38.88281;95003.61;;;;
2021/01/17 04:56:35;;;;;;;2.7;2.45;;;;;;;18.67;38.88281;95003.61;;;;
2021/01/17 04:57:42;;;;;;;2.7;2.45;;;;;;;18.67;38.88281;95003.61;;;;
2021/01/17 04:58:50;;;;;;;2.7;2.45;;;;;;;18.67;38.88281;95003.61;;;;
2021/01/17 05:00:09;;;;;;;2.7;2.45;;;;;;;18.67;38.88281;95003.61;;;;
2021/01/17 05:01:11;;;;;;;2.65;2.45;;;;;;;18.62;38.93359;94996.68;;;;
2021/01/17 05:02:21;;;;;;;2.65;2.45;;;;;;;18.62;38.93359;94996.68;;;;
2021/01/17 05:03:31;;;;;;;2.65;2.45;;;;;;;18.62;38.93359;94996.68;;;;
2021/01/17 05:04:51;;;;;;;2.65;2.45;;;;;;;18.62;38.93359;94996.68;;;;
2021/01/17 05:06:13;;;;;;;2.65;2.45;;;;;;;18.62;38.93359;94996.68;;;;
2021/01/17 05:07:24;;;;;;;2.65;2.45;;;;;;;18.62;38.93359;94996.68;;;;
2021/01/17 05:08:34;;;;;;;2.65;2.45;;;;;;;18.62;38.93359;94996.68;;;;
2021/01/17 05:09:34;;;;;;;2.65;2.45;;;;;;;18.62;38.93359;94996.68;;;;
2021/01/17 05:10:43;;;;;;;2.65;2.45;;;;;;;18.62;38.93359;94996.68;;;;
2021/01/17 05:11:47;;;;;;;2.5;2.299999;;;;;;;18.63;38.85742;94984.65;;;;
2021/01/17 05:12:50;;;;;;;2.5;2.299999;;;;;;;18.63;38.85742;94984.65;;;;
2021/01/17 05:13:52;;;;;;;2.5;2.299999;;;;;;;18.63;38.85742;94984.65;;;;
2021/01/17 05:15:08;;;;;;;2.5;2.299999;;;;;;;18.63;38.85742;94984.65;;;;
2021/01/17 05:16:09;;;;;;;2.5;2.299999;;;;;;;18.63;38.85742;94984.65;;;;
2021/01/17 05:17:09;;;;;;;2.5;2.299999;;;;;;;18.63;38.85742;94984.65;;;;
2021/01/17 05:18:10;;;;;;;2.5;2.299999;;;;;;;18.63;38.85742;94984.65;;;;
2021/01/17 05:19:11;;;;;;;2.5;2.299999;;;;;;;18.63;38.85742;94984.65;;;;
2021/01/17 05:20:13;;;;;;;2.5;2.299999;;;;;;;18.63;38.85742;94984.65;;;;
2021/01/17 05:21:15;;;;;;;2.5;2.299999;;;;;;;18.63;38.85742;94984.65;;;;
2021/01/17 05:22:20;;;;;;;2.5;2.3;;;;;;;18.6;38.91992;94991.26;;;;
2021/01/17 05:23:21;;;;;;;2.5;2.3;;;;;;;18.6;38.91992;94991.26;;;;
2021/01/17 05:24:22;;;;;;;2.5;2.3;;;;;;;18.6;38.91992;94991.26;;;;
2021/01/17 05:25:22;;;;;;;2.5;2.3;;;;;;;18.6;38.91992;94991.26;;;;
2021/01/17 05:26:25;;;;;;;2.5;2.3;;;;;;;18.6;38.91992;94991.26;;;;
2021/01/17 05:27:26;;;;;;;2.5;2.3;;;;;;;18.6;38.91992;94991.26;;;;
2021/01/17 05:28:27;;;;;;;2.5;2.3;;;;;;;18.6;38.91992;94991.26;;;;
2021/01/17 05:29:29;;;;;;;2.5;2.3;;;;;;;18.6;38.91992;94991.26;;;;
2021/01/17 05:30:30;;;;;;;2.5;2.3;;;;;;;18.6;38.91992;94991.26;;;;
2021/01/17 05:31:31;;;;;;;2.5;2.3;;;;;;;18.6;38.91992;94991.26;;;;
2021/01/17 05:32:33;;;;;;;2.5;2.3;;;;;;;18.6;38.91992;94991.26;;;;
2021/01/17 05:33:34;;;;;;;2.7;2.5;;;;;;;18.62;38.85645;94989.84;;;;
2021/01/17 05:34:34;;;;;;;2.7;2.5;;;;;;;18.62;38.85645;94989.84;;;;
2021/01/17 05:35:35;;;;;;;2.7;2.5;;;;;;;18.62;38.85645;94989.84;;;;
2021/01/17 05:36:36;;;;;;;2.7;2.5;;;;;;;18.62;38.85645;94989.84;;;;
2021/01/17 05:37:36;;;;;;;2.7;2.5;;;;;;;18.62;38.85645;94989.84;;;;
2021/01/17 05:38:46;;;;;;;2.7;2.5;;;;;;;18.62;38.85645;94989.84;;;;
2021/01/17 05:39:58;;;;;;;2.7;2.5;;;;;;;18.62;38.85645;94989.84;;;;
2021/01/17 05:41:00;;;;;;;2.7;2.5;;;;;;;18.62;38.85645;94989.84;;;;
2021/01/17 05:42:01;;;;;;;2.7;2.5;;;;;;;18.62;38.85645;94989.84;;;;
2021/01/17 05:43:06;;;;;;;2.7;2.5;;;;;;;18.62;38.85645;94989.84;;;;
2021/01/17 05:44:08;;;;;;;2.5;2.299999;;;;;;;18.59;38.95215;94990.99;;;;
2021/01/17 05:45:08;;;;;;;2.5;2.299999;;;;;;;18.59;38.95215;94990.99;;;;
2021/01/17 05:46:11;;;;;;;2.5;2.299999;;;;;;;18.59;38.95215;94990.99;;;;
2021/01/17 05:47:12;;;;;;;2.5;2.299999;;;;;;;18.59;38.95215;94990.99;;;;
2021/01/17 05:48:12;;;;;;;2.5;2.299999;;;;;;;18.59;38.95215;94990.99;;;;
2021/01/17 05:49:13;;;;;;;2.5;2.299999;;;;;;;18.59;38.95215;94990.99;;;;
2021/01/17 05:50:14;;;;;;;2.5;2.299999;;;;;;;18.59;38.95215;94990.99;;;;
2021/01/17 05:51:14;;;;;;;2.5;2.299999;;;;;;;18.59;38.95215;94990.99;;;;
2021/01/17 05:52:30;;;;;;;2.5;2.299999;;;;;;;18.59;38.95215;94990.99;;;;
2021/01/17 05:53:31;;;;;;;2.5;2.299999;;;;;;;18.59;38.95215;94990.99;;;;
2021/01/17 05:54:32;;;;;;;2.4;2.2;;;;;;;18.6;38.91016;94993;;;;
2021/01/17 05:55:33;;;;;;;2.4;2.2;;;;;;;18.6;38.91016;94993;;;;
2021/01/17 05:56:35;;;;;;;2.4;2.2;;;;;;;18.6;38.91016;94993;;;;
2021/01/17 05:57:37;;;;;;;2.4;2.2;;;;;;;18.6;38.91016;94993;;;;
2021/01/17 05:58:37;;;;;;;2.4;2.2;;;;;;;18.6;38.91016;94993;;;;